Time;durP1;ratioP1;P1;durP2;ratioP2;P2;SDS_P1;SDS_P2;PMS_P1;PMS_P2;Temp;Humidity;BMP_temperature;BMP_pressure;BME280_temperature;BME280_humidity;BME280_pressure;Samples;Min_cycle;Max_cycle;Signal;HPM_P1;HPM_P2
2022/08/25 00:01:52;;;;;;;2.80;2.58;;;;;29.20;101585.00;;;;5083045;28;20227;-76
2022/08/25 00:04:20;;;;;;;3.97;2.80;;;;;29.20;101586.00;;;;5084057;28;20236;-76
2022/08/25 00:06:48;;;;;;;2.63;2.42;;;;;29.20;101573.00;;;;5088032;28;20209;-76
2022/08/25 00:09:20;;;;;;;3.47;3.17;;;;;29.20;101578.00;;;;5087981;28;20193;-76
2022/08/25 00:11:48;;;;;;;4.78;2.92;;;;;29.20;101570.00;;;;5087278;28;20626;-76
2022/08/25 00:14:19;;;;;;;3.80;3.00;;;;;29.10;101575.00;;;;5087011;28;20206;-76
2022/08/25 00:16:47;;;;;;;4.40;3.08;;;;;29.20;101568.00;;;;5086705;28;20225;-76
2022/08/25 00:19:18;;;;;;;5.32;2.90;;;;;29.10;101565.00;;;;5086468;28;20230;-77
2022/08/25 00:21:46;;;;;;;3.28;2.80;;;;;29.10;101570.00;;;;5087275;28;20241;-76
2022/08/25 00:24:16;;;;;;;3.67;3.25;;;;;29.10;101562.00;;;;5087531;28;20695;-76
2022/08/25 00:26:47;;;;;;;2.83;2.63;;;;;29.00;101566.00;;;;5103480;28;20237;-76
2022/08/25 00:29:15;;;;;;;3.28;2.97;;;;;29.10;101566.00;;;;5108617;28;20208;-77
2022/08/25 00:31:43;;;;;;;3.13;2.78;;;;;29.00;101566.00;;;;5086755;28;20209;-77
2022/08/25 00:34:14;;;;;;;4.05;2.75;;;;;29.00;101564.00;;;;5086875;28;20197;-76
2022/08/25 00:36:42;;;;;;;3.40;3.10;;;;;29.00;101562.00;;;;5087925;28;20198;-77
2022/08/25 00:39:11;;;;;;;5.20;3.65;;;;;29.00;101570.00;;;;5085031;28;20195;-76
2022/08/25 00:41:40;;;;;;;3.08;2.83;;;;;29.00;101570.00;;;;5086180;28;20210;-77
2022/08/25 00:44:11;;;;;;;3.60;3.30;;;;;28.90;101570.00;;;;5086912;28;20194;-76
2022/08/25 00:46:41;;;;;;;3.25;2.90;;;;;28.90;101568.00;;;;5086666;28;20190;-76
2022/08/25 00:49:13;;;;;;;4.80;3.90;;;;;28.90;101564.00;;;;5086849;28;20202;-76
2022/08/25 00:51:44;;;;;;;3.42;3.13;;;;;28.90;101559.00;;;;5087449;28;20209;-76
2022/08/25 00:54:16;;;;;;;3.15;2.92;;;;;28.90;101559.00;;;;5081114;28;20675;-76
2022/08/25 00:56:44;;;;;;;3.30;2.90;;;;;28.90;101568.00;;;;5067258;28;20704;-76
2022/08/25 00:59:15;;;;;;;3.40;3.10;;;;;28.90;101561.00;;;;5068841;28;20661;-76
2022/08/25 01:01:42;;;;;;;3.88;3.45;;;;;28.90;101562.00;;;;5086654;28;20237;-76
2022/08/25 01:04:09;;;;;;;5.80;3.25;;;;;28.90;101566.00;;;;5087652;28;20210;-76
2022/08/25 01:06:42;;;;;;;6.07;3.40;;;;;28.80;101555.00;;;;5086292;28;20190;-76
2022/08/25 01:09:10;;;;;;;4.57;3.42;;;;;28.90;101564.00;;;;5085748;28;20723;-76
2022/08/25 01:11:37;;;;;;;3.60;3.30;;;;;28.90;101561.00;;;;5086927;28;20210;-76
2022/08/25 01:14:06;;;;;;;3.03;2.78;;;;;28.90;101556.00;;;;5086882;28;20195;-76
2022/08/25 01:16:36;;;;;;;3.38;3.08;;;;;28.80;101554.00;;;;5087314;28;20271;-76
2022/08/25 01:19:08;;;;;;;4.38;3.40;;;;;28.90;101548.00;;;;5085978;28;20202;-76
2022/08/25 01:21:41;;;;;;;3.35;3.05;;;;;28.80;101550.00;;;;5096537;28;20617;-76
2022/08/25 01:24:12;;;;;;;2.88;2.67;;;;;28.80;101544.00;;;;5088520;28;20674;-76
2022/08/25 01:26:39;;;;;;;6.00;3.25;;;;;28.80;101544.00;;;;5085466;28;20241;-76
2022/08/25 01:29:21;;;;;;;3.38;3.08;;;;;28.80;101539.00;;;;5087493;28;20194;-76
2022/08/25 01:31:50;;;;;;;3.25;3.03;;;;;28.80;101541.00;;;;5090138;28;20194;-76
2022/08/25 01:34:20;;;;;;;3.28;2.97;;;;;28.80;101542.00;;;;5091440;28;20198;-76
2022/08/25 01:36:49;;;;;;;3.92;3.58;;;;;28.80;101549.00;;;;5090730;28;20217;-75
2022/08/25 01:39:17;;;;;;;6.10;3.47;;;;;28.80;101546.00;;;;5089733;28;20194;-76
2022/08/25 01:41:58;;;;;;;3.28;2.97;;;;;28.70;101551.00;;;;5090990;28;20254;-76
2022/08/25 01:44:26;;;;;;;4.78;3.00;;;;;28.80;101548.00;;;;5090551;28;20201;-76
2022/08/25 01:46:54;;;;;;;4.68;3.38;;;;;28.80;101549.00;;;;5090405;28;20289;-76
2022/08/25 01:49:22;;;;;;;3.55;3.25;;;;;28.70;101547.00;;;;5089913;28;20205;-76
2022/08/25 01:51:55;;;;;;;3.38;2.80;;;;;28.70;101543.00;;;;5090274;28;20198;-76
2022/08/25 01:54:23;;;;;;;3.50;3.13;;;;;28.70;101541.00;;;;5090064;28;20835;-76
2022/08/25 01:56:50;;;;;;;3.28;2.97;;;;;28.70;101533.00;;;;5099691;28;20214;-76
2022/08/25 01:59:19;;;;;;;3.70;3.40;;;;;28.70;101541.00;;;;5088845;28;20903;-76
2022/08/25 02:01:47;;;;;;;3.10;2.83;;;;;28.70;101535.00;;;;5089056;28;20222;-76
2022/08/25 02:04:14;;;;;;;3.40;3.10;;;;;28.70;101546.00;;;;5088670;28;20195;-76
2022/08/25 02:06:41;;;;;;;3.53;2.83;;;;;28.70;101540.00;;;;5083061;28;20670;-76
2022/08/25 02:09:12;;;;;;;3.38;3.08;;;;;28.60;101540.00;;;;5084659;28;20663;-76
2022/08/25 02:11:42;;;;;;;4.40;2.78;;;;;28.60;101537.00;;;;5088567;28;20197;-76
2022/08/25 02:14:12;;;;;;;3.55;3.25;;;;;28.60;101533.00;;;;5090778;28;20734;-76
2022/08/25 02:16:42;;;;;;;3.75;3.20;;;;;28.60;101538.00;;;;5088713;28;20275;-76
2022/08/25 02:19:11;;;;;;;3.13;2.83;;;;;28.60;101538.00;;;;5089036;28;20201;-76
2022/08/25 02:21:39;;;;;;;9.95;3.45;;;;;28.60;101540.00;;;;5088957;28;20248;-76
2022/08/25 02:24:07;;;;;;;6.25;3.40;;;;;28.60;101529.00;;;;5070860;28;20245;-76
2022/08/25 02:26:37;;;;;;;3.17;2.88;;;;;28.50;101542.00;;;;5089515;28;20241;-76
2022/08/25 02:29:06;;;;;;;3.40;2.60;;;;;28.50;101536.00;;;;5087778;28;20194;-76
2022/08/25 02:31:34;;;;;;;3.38;3.08;;;;;28.50;101533.00;;;;5090267;28;20297;-76
2022/08/25 02:34:02;;;;;;;3.00;2.70;;;;;28.50;101528.00;;;;5087014;28;20293;-76
2022/08/25 02:36:30;;;;;;;2.95;2.65;;;;;28.50;101529.00;;;;5080032;28;20206;-76
2022/08/25 02:38:58;;;;;;;2.85;2.65;;;;;28.50;101534.00;;;;5086032;28;20202;-76
2022/08/25 02:41:26;;;;;;;7.38;2.90;;;;;28.50;101526.00;;;;5098691;28;20214;-76
2022/08/25 02:43:55;;;;;;;3.28;2.38;;;;;28.50;101526.00;;;;5089797;28;20198;-76
2022/08/25 02:46:24;;;;;;;4.07;3.08;;;;;28.50;101522.00;;;;5083316;28;20202;-76
2022/08/25 02:48:52;;;;;;;3.53;2.72;;;;;28.40;101521.00;;;;5079736;28;20190;-76
2022/08/25 02:51:20;;;;;;;3.78;2.22;;;;;28.40;101519.00;;;;5088897;28;20206;-76
2022/08/25 02:53:48;;;;;;;2.75;2.55;;;;;28.40;101520.00;;;;5089495;28;20202;-76
2022/08/25 02:56:18;;;;;;;4.07;2.38;;;;;28.40;101522.00;;;;5110204;28;20205;-76
2022/08/25 02:58:47;;;;;;;3.63;2.30;;;;;28.40;101516.00;;;;5092947;28;20612;-76
2022/08/25 03:01:17;;;;;;;2.80;2.45;;;;;28.40;101518.00;;;;5088548;28;20214;-77
2022/08/25 03:03:46;;;;;;;4.45;2.33;;;;;28.40;101514.00;;;;5089118;28;21047;-76
2022/08/25 03:06:15;;;;;;;3.92;2.40;;;;;28.40;101520.00;;;;5089297;28;20212;-76
2022/08/25 03:08:43;;;;;;;3.38;2.22;;;;;28.40;101510.00;;;;5090105;28;20201;-76
2022/08/25 03:11:11;;;;;;;2.60;2.40;;;;;28.40;101505.00;;;;5093185;28;20198;-76
2022/08/25 03:13:38;;;;;;;5.68;2.13;;;;;28.40;101509.00;;;;5088679;28;20205;-76
2022/08/25 03:16:09;;;;;;;2.50;1.83;;;;;28.40;101500.00;;;;5086849;28;20195;-76
2022/08/25 03:18:38;;;;;;;3.05;2.42;;;;;28.40;101499.00;;;;5079836;28;20203;-76
2022/08/25 03:21:05;;;;;;;5.80;2.33;;;;;28.40;101500.00;;;;5081698;28;20210;-76
2022/08/25 03:23:33;;;;;;;3.28;2.50;;;;;28.40;101497.00;;;;5083625;28;20193;-76
2022/08/25 03:28:45;;;;;;;5.10;2.33;;;;;28.40;101493.00;;;;5086985;28;20221;-76
2022/08/25 03:31:12;;;;;;;3.75;2.50;;;;;28.40;101492.00;;;;5088216;28;20213;-76
2022/08/25 03:33:41;;;;;;;3.95;2.42;;;;;28.30;101488.00;;;;5088774;28;20198;-76
2022/08/25 03:36:11;;;;;;;2.10;1.90;;;;;28.30;101490.00;;;;5085032;28;20198;-76
2022/08/25 03:38:38;;;;;;;5.85;2.95;;;;;28.40;101489.00;;;;5086943;28;20364;-76
2022/08/25 03:41:14;;;;;;;2.33;2.10;;;;;28.30;101486.00;;;;5087967;28;20200;-76
2022/08/25 03:43:42;;;;;;;2.63;1.98;;;;;28.40;101487.00;;;;5071875;28;20286;-76
2022/08/25 03:46:10;;;;;;;3.85;2.08;;;;;28.40;101483.00;;;;5087926;28;20202;-76
2022/08/25 03:48:37;;;;;;;3.38;2.58;;;;;28.30;101480.00;;;;5081103;28;20580;-76
2022/08/25 03:51:06;;;;;;;3.42;2.70;;;;;28.30;101484.00;;;;5068233;28;20679;-76
2022/08/25 03:53:33;;;;;;;2.70;2.50;;;;;28.30;101472.00;;;;5074062;28;20198;-76
2022/08/25 03:56:00;;;;;;;3.42;2.40;;;;;28.30;101473.00;;;;5109482;28;20202;-76
2022/08/25 03:58:27;;;;;;;3.17;2.67;;;;;28.30;101475.00;;;;5093489;28;20190;-76
2022/08/25 04:00:59;;;;;;;3.28;2.08;;;;;28.30;101481.00;;;;5085913;28;20198;-76
2022/08/25 04:03:26;;;;;;;2.45;2.25;;;;;28.30;101474.00;;;;5087421;28;20226;-76
2022/08/25 04:05:53;;;;;;;2.17;1.98;;;;;28.20;101468.00;;;;5087551;28;20225;-77
2022/08/25 04:08:22;;;;;;;2.38;2.10;;;;;28.20;101473.00;;;;5086614;28;20203;-76
2022/08/25 04:10:49;;;;;;;2.08;1.88;;;;;28.20;101469.00;;;;5086779;28;20205;-76
2022/08/25 04:13:17;;;;;;;2.53;2.20;;;;;28.20;101464.00;;;;5085886;28;20209;-76
2022/08/25 04:15:44;;;;;;;3.30;2.25;;;;;28.20;101463.00;;;;5087328;28;20839;-76
2022/08/25 04:18:12;;;;;;;2.85;2.47;;;;;28.10;101457.00;;;;5082695;28;20209;-76
2022/08/25 04:20:40;;;;;;;3.95;2.13;;;;;28.10;101458.00;;;;5082986;28;20213;-76
2022/08/25 04:23:07;;;;;;;4.13;2.17;;;;;28.10;101457.00;;;;5068107;28;20227;-76
2022/08/25 04:25:40;;;;;;;2.65;2.15;;;;;28.00;101460.00;;;;5075896;28;20199;-76
2022/08/25 04:28:08;;;;;;;3.53;2.03;;;;;28.00;101456.00;;;;5078066;28;20249;-76
2022/08/25 04:30:36;;;;;;;3.58;2.45;;;;;28.00;101451.00;;;;5088047;28;20271;-76
2022/08/25 04:33:03;;;;;;;2.58;2.35;;;;;28.00;101452.00;;;;5088313;28;20660;-76
2022/08/25 04:35:30;;;;;;;2.35;2.08;;;;;27.90;101450.00;;;;5083695;28;20207;-76
2022/08/25 04:37:58;;;;;;;2.40;2.00;;;;;27.90;101446.00;;;;5072353;28;20187;-76
2022/08/25 04:40:26;;;;;;;3.00;2.25;;;;;27.90;101452.00;;;;5088092;28;20190;-77
2022/08/25 04:42:54;;;;;;;3.00;2.70;;;;;27.80;101456.00;;;;5088502;28;20303;-76
2022/08/25 04:45:22;;;;;;;2.53;2.20;;;;;27.80;101457.00;;;;5086994;28;20194;-76
2022/08/25 04:47:49;;;;;;;5.13;3.08;;;;;27.80;101456.00;;;;5086075;28;20195;-76
2022/08/25 04:50:16;;;;;;;2.67;2.10;;;;;27.80;101456.00;;;;5088271;28;20210;-76
2022/08/25 04:52:44;;;;;;;2.50;2.30;;;;;27.70;101457.00;;;;5088100;28;20209;-76
2022/08/25 04:55:14;;;;;;;2.78;2.15;;;;;27.70;101454.00;;;;5087944;28;20194;-76
2022/08/25 04:57:42;;;;;;;2.85;2.60;;;;;27.70;101448.00;;;;5087142;28;20198;-76
2022/08/25 05:00:12;;;;;;;3.00;2.42;;;;;27.60;101457.00;;;;5094442;28;20194;-76
2022/08/25 05:02:39;;;;;;;2.50;2.30;;;;;27.60;101453.00;;;;5087775;28;20232;-76
2022/08/25 05:05:07;;;;;;;4.80;2.40;;;;;27.60;101452.00;;;;5090080;28;20209;-76
2022/08/25 05:07:34;;;;;;;2.45;2.05;;;;;27.60;101452.00;;;;5086988;28;20209;-77
2022/08/25 05:10:02;;;;;;;3.80;2.58;;;;;27.60;101443.00;;;;5086427;28;20208;-77
2022/08/25 05:12:29;;;;;;;5.60;1.80;;;;;27.60;101445.00;;;;5077025;28;20194;-76
2022/08/25 05:15:48;;;;;;;2.30;2.10;;;;;27.60;101449.00;;;;5088359;28;20202;-78
2022/08/25 05:17:45;;;;;;;4.88;2.47;;;;;27.60;101452.00;;;;5086283;28;20229;-78
2022/08/25 05:20:12;;;;;;;2.80;2.60;;;;;27.60;101459.00;;;;5085517;28;20198;-78
2022/08/25 05:22:39;;;;;;;4.25;2.30;;;;;27.60;101460.00;;;;5082681;28;20237;-79
2022/08/25 05:25:08;;;;;;;2.63;2.13;;;;;27.60;101455.00;;;;5086178;28;20971;-80
2022/08/25 05:27:35;;;;;;;8.48;2.70;;;;;27.60;101458.00;;;;5088341;28;20225;-82
2022/08/25 05:30:05;;;;;;;3.30;2.53;;;;;27.60;101465.00;;;;5089672;28;20202;-80
2022/08/25 05:32:32;;;;;;;4.18;2.28;;;;;27.60;101477.00;;;;5088129;28;20680;-78
2022/08/25 05:35:01;;;;;;;3.25;2.03;;;;;27.60;101476.00;;;;5089153;28;20194;-81
2022/08/25 05:37:28;;;;;;;3.20;2.28;;;;;27.60;101477.00;;;;5088329;28;20213;-78
2022/08/25 05:39:56;;;;;;;2.78;2.45;;;;;27.60;101476.00;;;;5089510;28;20660;-78
2022/08/25 05:42:23;;;;;;;4.13;2.40;;;;;27.70;101481.00;;;;5092402;28;20218;-77
2022/08/25 05:44:50;;;;;;;3.42;2.15;;;;;27.70;101486.00;;;;5095075;28;20201;-78
2022/08/25 05:47:18;;;;;;;2.85;2.15;;;;;27.80;101486.00;;;;5093036;28;20209;-77
2022/08/25 05:49:45;;;;;;;4.55;2.40;;;;;27.80;101481.00;;;;5076630;28;20206;-80
2022/08/25 05:52:14;;;;;;;3.30;2.00;;;;;27.80;101483.00;;;;5088140;28;20574;-79
2022/08/25 05:54:41;;;;;;;2.20;1.90;;;;;27.90;101479.00;;;;5086909;28;20193;-77
2022/08/25 05:57:09;;;;;;;2.60;2.25;;;;;27.90;101486.00;;;;5088819;28;20197;-80
2022/08/25 05:59:36;;;;;;;3.17;2.10;;;;;28.00;101486.00;;;;5087366;28;20202;-78
2022/08/25 06:04:49;;;;;;;3.17;2.88;;;;;28.10;101488.00;;;;5089741;28;20201;-78
2022/08/25 06:07:17;;;;;;;2.10;1.90;;;;;28.20;101489.00;;;;5088721;28;20201;-79
2022/08/25 06:09:47;;;;;;;3.95;2.08;;;;;28.20;101485.00;;;;5089651;28;20209;-78
2022/08/25 06:12:15;;;;;;;1.92;1.80;;;;;28.30;101496.00;;;;5097890;28;20879;-78
2022/08/25 06:14:43;;;;;;;3.22;2.10;;;;;28.30;101491.00;;;;5088749;28;20670;-78
2022/08/25 06:17:10;;;;;;;2.15;1.95;;;;;28.40;101499.00;;;;5087030;28;20222;-78
2022/08/25 06:19:38;;;;;;;3.72;2.03;;;;;28.40;101505.00;;;;5088719;28;20194;-78
2022/08/25 06:22:06;;;;;;;4.50;2.10;;;;;28.40;101503.00;;;;5084905;28;20194;-78
2022/08/25 06:24:36;;;;;;;2.65;2.10;;;;;28.40;101502.00;;;;5084531;28;20226;-78
2022/08/25 06:27:04;;;;;;;2.42;1.92;;;;;28.50;101503.00;;;;5090592;28;20341;-78
2022/08/25 06:29:33;;;;;;;3.75;2.28;;;;;28.50;101499.00;;;;5085574;28;20514;-78
2022/08/25 06:32:00;;;;;;;4.35;2.20;;;;;28.50;101495.00;;;;5087975;28;20720;-78
2022/08/25 06:34:27;;;;;;;3.38;2.55;;;;;28.60;101496.00;;;;5088361;28;20203;-78
2022/08/25 06:36:55;;;;;;;4.80;2.40;;;;;28.60;101496.00;;;;5084569;28;20277;-78
2022/08/25 06:39:23;;;;;;;5.43;2.97;;;;;28.60;101496.00;;;;5086890;28;20190;-78
2022/08/25 06:41:53;;;;;;;4.20;2.63;;;;;28.60;101494.00;;;;5090395;28;20209;-79
2022/08/25 06:44:20;;;;;;;2.80;2.38;;;;;28.70;101496.00;;;;5087670;28;20627;-77
2022/08/25 06:46:48;;;;;;;2.95;2.38;;;;;28.70;101494.00;;;;5086615;28;20195;-78
2022/08/25 06:49:15;;;;;;;5.63;2.67;;;;;28.80;101494.00;;;;5089159;28;20833;-78
2022/08/25 06:51:43;;;;;;;4.30;2.40;;;;;28.90;101489.00;;;;5089528;28;20194;-78
2022/08/25 06:54:11;;;;;;;3.50;2.35;;;;;28.90;101494.00;;;;5089637;28;20402;-78
2022/08/25 06:56:39;;;;;;;4.28;2.10;;;;;29.00;101488.00;;;;5087888;28;20206;-78
2022/08/25 06:59:09;;;;;;;3.00;2.50;;;;;29.00;101490.00;;;;5087755;28;20207;-79
2022/08/25 07:01:37;;;;;;;4.70;2.10;;;;;29.10;101494.00;;;;5094296;28;20230;-78
2022/08/25 07:04:06;;;;;;;4.75;2.17;;;;;29.20;101485.00;;;;5096411;28;20275;-78
2022/08/25 07:06:35;;;;;;;6.53;2.00;;;;;29.20;101490.00;;;;5086624;28;20440;-78
2022/08/25 07:09:04;;;;;;;5.28;2.20;;;;;29.30;101494.00;;;;5082866;28;20605;-79
2022/08/25 07:11:33;;;;;;;10.13;2.30;;;;;29.40;101493.00;;;;5081721;28;20190;-77
2022/08/25 07:14:01;;;;;;;2.75;2.33;;;;;29.50;101496.00;;;;5084902;28;20637;-78
2022/08/25 07:16:31;;;;;;;3.53;2.30;;;;;29.50;101494.00;;;;5087033;28;20628;-78
2022/08/25 07:18:59;;;;;;;5.15;2.22;;;;;29.60;101500.00;;;;5084563;28;20206;-77
2022/08/25 07:21:29;;;;;;;2.85;1.98;;;;;29.60;101494.00;;;;5086377;28;20199;-77
2022/08/25 07:23:57;;;;;;;3.80;2.35;;;;;29.70;101496.00;;;;5078615;28;20233;-78
2022/08/25 07:26:27;;;;;;;2.38;2.13;;;;;29.70;101494.00;;;;5086378;28;20505;-79
2022/08/25 07:28:55;;;;;;;2.70;2.35;;;;;29.80;101496.00;;;;5095474;28;20730;-78
2022/08/25 07:31:22;;;;;;;2.15;1.92;;;;;29.80;101494.00;;;;5086211;28;20205;-78
2022/08/25 07:36:36;;;;;;;2.33;2.10;;;;;29.90;101495.00;;;;5078154;28;20751;-78
2022/08/25 07:39:04;;;;;;;5.93;2.67;;;;;30.00;101499.00;;;;5087399;28;20687;-79
2022/08/25 07:41:33;;;;;;;2.42;2.22;;;;;30.00;101496.00;;;;5080821;28;20733;-78
2022/08/25 07:44:00;;;;;;;4.40;2.10;;;;;30.10;101492.00;;;;5085554;28;20222;-78
2022/08/25 07:46:28;;;;;;;8.63;2.60;;;;;30.20;101487.00;;;;5087740;28;20252;-78
2022/08/25 07:48:56;;;;;;;3.10;2.40;;;;;30.20;101483.00;;;;5088864;28;20229;-78
2022/08/25 07:51:24;;;;;;;2.80;2.40;;;;;30.30;101488.00;;;;5079480;28;20187;-78
2022/08/25 07:53:51;;;;;;;2.83;2.47;;;;;30.40;101481.00;;;;5076495;28;20211;-78
2022/08/25 07:56:18;;;;;;;4.38;2.50;;;;;30.50;101487.00;;;;5070317;28;20206;-78
2022/08/25 07:58:47;;;;;;;3.50;2.17;;;;;30.60;101482.00;;;;5072066;28;20207;-79
2022/08/25 08:01:15;;;;;;;8.75;2.58;;;;;30.70;101488.00;;;;5080016;28;20199;-78
2022/08/25 08:03:43;;;;;;;3.30;2.58;;;;;30.80;101486.00;;;;5087523;28;20226;-78
2022/08/25 08:06:14;;;;;;;2.95;2.50;;;;;30.90;101485.00;;;;5087741;28;20183;-78
2022/08/25 08:08:44;;;;;;;6.55;2.30;;;;;31.00;101478.00;;;;5084956;28;20202;-78
2022/08/25 08:11:16;;;;;;;3.75;2.22;;;;;31.10;101481.00;;;;5086563;28;20191;-80
2022/08/25 08:13:44;;;;;;;3.60;2.10;;;;;31.30;101478.00;;;;5087952;28;20241;-79
2022/08/25 08:16:13;;;;;;;2.83;2.22;;;;;31.40;101475.00;;;;5086196;28;20198;-78
2022/08/25 08:18:41;;;;;;;5.75;2.60;;;;;31.50;101477.00;;;;5088232;28;20207;-79
2022/08/25 08:21:15;;;;;;;4.75;2.00;;;;;31.50;101478.00;;;;5087197;28;20564;-79
2022/08/25 08:23:42;;;;;;;4.40;2.22;;;;;31.70;101474.00;;;;5085538;28;20260;-78
2022/08/25 08:26:09;;;;;;;3.53;2.40;;;;;31.80;101478.00;;;;5080650;28;20594;-79
2022/08/25 08:28:37;;;;;;;5.82;2.30;;;;;31.90;101479.00;;;;5085722;28;20236;-79
2022/08/25 08:31:04;;;;;;;2.95;2.20;;;;;32.00;101479.00;;;;5077548;28;20288;-80
2022/08/25 08:33:33;;;;;;;5.57;2.20;;;;;32.10;101480.00;;;;5075889;28;20213;-79
2022/08/25 08:36:02;;;;;;;5.82;2.95;;;;;32.20;101483.00;;;;5086017;28;20577;-78
2022/08/25 08:38:31;;;;;;;2.53;2.17;;;;;32.20;101474.00;;;;5078053;28;20193;-79
2022/08/25 08:43:56;;;;;;;4.75;2.53;;;;;32.40;101473.00;;;;5075686;28;21441;-82
2022/08/25 08:46:25;;;;;;;7.97;2.40;;;;;32.60;101479.00;;;;5069314;28;20189;-78
2022/08/25 08:49:00;;;;;;;5.55;2.53;;;;;32.60;101476.00;;;;5075096;28;20201;-78
2022/08/25 08:51:33;;;;;;;2.05;1.83;;;;;32.70;101474.00;;;;5070426;28;20220;-79
2022/08/25 08:54:06;;;;;;;3.85;2.42;;;;;32.80;101466.00;;;;5076490;28;20198;-79
2022/08/25 08:56:39;;;;;;;4.38;2.17;;;;;32.90;101464.00;;;;5086913;28;20200;-79
2022/08/25 08:59:11;;;;;;;3.70;2.17;;;;;33.00;101469.00;;;;5087797;28;20193;-77
2022/08/25 09:01:45;;;;;;;9.32;2.60;;;;;33.10;101472.00;;;;5086754;28;20505;-78
2022/08/25 09:04:20;;;;;;;5.40;1.85;;;;;33.20;101470.00;;;;5081432;28;20229;-79
2022/08/25 09:06:49;;;;;;;3.38;2.38;;;;;33.40;101473.00;;;;5070691;28;20528;-78
2022/08/25 09:09:30;;;;;;;2.58;1.80;;;;;33.40;101472.00;;;;5074211;28;20208;-78
2022/08/25 09:12:09;;;;;;;3.88;2.40;;;;;33.60;101463.00;;;;5081238;28;20200;-78
2022/08/25 09:14:48;;;;;;;2.58;2.00;;;;;33.70;101465.00;;;;5086573;28;20216;-79
2022/08/25 09:17:30;;;;;;;4.15;2.08;;;;;33.80;101468.00;;;;5069629;28;20904;-79
2022/08/25 09:20:11;;;;;;;1.95;1.80;;;;;33.90;101473.00;;;;5072605;28;21927;-78
2022/08/25 09:22:52;;;;;;;2.65;2.35;;;;;34.10;101470.00;;;;5072842;28;20205;-78
2022/08/25 09:25:29;;;;;;;3.65;1.73;;;;;34.20;101469.00;;;;5079744;28;20296;-78
2022/08/25 09:28:06;;;;;;;4.25;2.50;;;;;34.40;101472.00;;;;5077050;28;20231;-78
2022/08/25 09:30:44;;;;;;;3.10;1.88;;;;;34.50;101475.00;;;;5070045;28;20563;-79
2022/08/25 09:33:15;;;;;;;3.13;1.95;;;;;34.70;101469.00;;;;5068590;28;20285;-78
2022/08/25 09:35:42;;;;;;;3.53;2.00;;;;;34.80;101468.00;;;;5081114;28;20689;-78
2022/08/25 09:38:11;;;;;;;2.80;2.30;;;;;34.90;101468.00;;;;5068705;28;20580;-81
2022/08/25 09:40:43;;;;;;;4.30;2.38;;;;;35.00;101470.00;;;;5066795;28;20668;-80
2022/08/25 09:43:21;;;;;;;5.43;1.90;;;;;35.10;101472.00;;;;5070812;28;20620;-79
2022/08/25 09:45:55;;;;;;;2.55;1.90;;;;;35.30;101464.00;;;;5086294;28;20201;-80
2022/08/25 09:48:26;;;;;;;2.35;2.13;;;;;35.40;101456.00;;;;5085524;28;20682;-81
2022/08/25 09:50:58;;;;;;;2.38;2.10;;;;;35.50;101458.00;;;;5081291;28;20206;-79
2022/08/25 09:53:26;;;;;;;2.03;1.75;;;;;35.60;101460.00;;;;5082945;28;20197;-79
2022/08/25 09:56:03;;;;;;;2.30;1.90;;;;;35.70;101452.00;;;;5077104;28;20237;-79
2022/08/25 09:58:31;;;;;;;3.22;1.70;;;;;35.90;101451.00;;;;5072771;28;20194;-79
2022/08/25 10:01:11;;;;;;;1.95;1.60;;;;;36.00;101457.00;;;;5082276;28;20197;-79
2022/08/25 10:03:53;;;;;;;2.83;1.85;;;;;36.10;101450.00;;;;5089819;28;20347;-79
2022/08/25 10:06:21;;;;;;;4.63;1.73;;;;;36.20;101456.00;;;;5082920;28;20194;-79
2022/08/25 10:08:56;;;;;;;7.03;2.00;;;;;36.30;101445.00;;;;5073846;28;20233;-80
2022/08/25 10:11:38;;;;;;;2.35;1.50;;;;;36.30;101446.00;;;;5074641;28;20274;-79
2022/08/25 10:14:15;;;;;;;3.60;1.77;;;;;36.50;101448.00;;;;5077876;28;20198;-79
2022/08/25 10:16:43;;;;;;;4.15;2.00;;;;;36.70;101437.00;;;;5075026;28;21561;-79
2022/08/25 10:19:14;;;;;;;6.30;1.90;;;;;36.70;101429.00;;;;5076559;28;21019;-79
2022/08/25 10:21:43;;;;;;;3.92;1.60;;;;;36.90;101428.00;;;;5079645;28;20687;-78
2022/08/25 10:24:11;;;;;;;2.00;1.75;;;;;37.00;101433.00;;;;5080215;28;20301;-78
2022/08/25 10:26:54;;;;;;;5.68;1.92;;;;;37.10;101431.00;;;;5082540;28;20244;-79
2022/08/25 10:29:33;;;;;;;3.45;2.17;;;;;37.20;101426.00;;;;5082371;28;20237;-80
2022/08/25 10:32:09;;;;;;;3.50;1.95;;;;;37.30;101426.00;;;;5082011;28;20656;-80
2022/08/25 10:34:46;;;;;;;3.17;1.92;;;;;37.40;101425.00;;;;5089904;28;20197;-78
2022/08/25 10:37:28;;;;;;;2.70;1.73;;;;;37.40;101426.00;;;;5075067;28;20266;-79
2022/08/25 10:40:09;;;;;;;2.22;1.90;;;;;37.40;101418.00;;;;5087419;28;20206;-79
2022/08/25 10:42:44;;;;;;;2.45;1.80;;;;;37.40;101412.00;;;;5086538;28;20652;-79
2022/08/25 10:48:18;;;;;;;1.70;1.52;;;;;37.40;101404.00;;;;5077501;28;20525;-79
2022/08/25 10:50:51;;;;;;;2.88;1.77;;;;;37.50;101407.00;;;;5082979;28;20761;-79
2022/08/25 10:53:26;;;;;;;2.67;1.80;;;;;37.50;101403.00;;;;5088273;28;20206;-78
2022/08/25 10:56:06;;;;;;;2.10;1.60;;;;;37.50;101400.00;;;;5077296;28;20224;-79
2022/08/25 10:59:03;;;;;;;4.88;2.05;;;;;37.50;101392.00;;;;5084691;28;20201;-79
2022/08/25 11:01:45;;;;;;;1.65;1.55;;;;;37.60;101390.00;;;;5084918;28;20190;-79
2022/08/25 11:04:16;;;;;;;1.95;1.75;;;;;37.70;101388.00;;;;5083752;28;20303;-79
2022/08/25 11:06:49;;;;;;;2.63;2.00;;;;;37.70;101380.00;;;;5087930;28;20423;-79
2022/08/25 11:09:21;;;;;;;4.55;2.00;;;;;37.70;101380.00;;;;5074729;28;20853;-79
2022/08/25 11:11:53;;;;;;;1.90;1.70;;;;;37.70;101386.00;;;;5089274;28;20208;-80
2022/08/25 11:14:28;;;;;;;2.10;1.90;;;;;37.70;101383.00;;;;5087849;28;20205;-80
2022/08/25 11:17:03;;;;;;;1.83;1.52;;;;;37.70;101376.00;;;;5073809;28;20225;-78
2022/08/25 11:19:34;;;;;;;1.98;1.60;;;;;37.80;101376.00;;;;5073079;28;20709;-78
2022/08/25 11:22:07;;;;;;;2.08;1.83;;;;;37.80;101371.00;;;;5077445;28;20202;-78
2022/08/25 11:24:47;;;;;;;1.98;1.67;;;;;37.80;101368.00;;;;5078311;28;20218;-78
2022/08/25 11:27:21;;;;;;;6.15;1.70;;;;;37.80;101366.00;;;;5068878;28;20665;-78
2022/08/25 11:29:58;;;;;;;7.80;1.92;;;;;37.80;101363.00;;;;5084953;28;20208;-78
2022/08/25 11:32:26;;;;;;;3.13;2.25;;;;;37.90;101358.00;;;;5082779;28;20197;-78
2022/08/25 11:34:54;;;;;;;3.33;1.85;;;;;37.90;101360.00;;;;5075600;28;20202;-78
2022/08/25 11:37:25;;;;;;;2.95;1.90;;;;;37.90;101352.00;;;;5074666;28;20205;-79
2022/08/25 11:40:14;;;;;;;1.92;1.83;;;;;37.90;101361.00;;;;5083117;28;20196;-80
2022/08/25 11:43:03;;;;;;;1.60;1.50;;;;;37.90;101362.00;;;;5081143;28;20205;-79
2022/08/25 11:45:58;;;;;;;2.78;2.17;;;;;37.90;101346.00;;;;5073932;28;20226;-79
2022/08/25 11:48:41;;;;;;;2.45;1.73;;;;;37.90;101344.00;;;;5068423;28;20209;-79
2022/08/25 11:51:10;;;;;;;3.03;1.38;;;;;38.00;101350.00;;;;5075121;28;20276;-79
2022/08/25 11:53:39;;;;;;;1.98;1.60;;;;;37.90;101344.00;;;;5076780;28;20213;-78
2022/08/25 11:56:09;;;;;;;2.08;1.83;;;;;37.90;101346.00;;;;5076341;28;20568;-78
2022/08/25 11:58:47;;;;;;;8.68;1.75;;;;;37.80;101359.00;;;;5070799;28;20206;-79
2022/08/25 12:01:52;;;;;;;2.28;1.60;;;;;37.60;101355.00;;;;5076383;28;20194;-79
2022/08/25 12:04:38;;;;;;;2.50;1.73;;;;;37.60;101351.00;;;;5086179;28;20214;-79
2022/08/25 12:08:37;;;;;;;2.33;1.38;;;;;37.50;101347.00;;;;5082437;28;20201;-78
2022/08/25 12:10:56;;;;;;;1.17;1.08;;;;;37.50;101359.00;;;;5069765;28;20186;-79
2022/08/25 12:13:27;;;;;;;2.70;1.88;;;;;37.50;101351.00;;;;5084184;28;20193;-80
2022/08/25 12:16:00;;;;;;;1.73;1.60;;;;;37.50;101355.00;;;;5076920;28;20203;-79
2022/08/25 12:18:45;;;;;;;8.45;1.88;;;;;37.50;101350.00;;;;5067514;28;20290;-80
2022/08/25 12:21:16;;;;;;;1.85;1.70;;;;;37.60;101346.00;;;;5071084;28;20584;-79
2022/08/25 12:23:45;;;;;;;3.35;1.70;;;;;37.60;101349.00;;;;5084541;28;20202;-80
2022/08/25 12:26:19;;;;;;;9.77;2.13;;;;;37.60;101341.00;;;;5086584;28;20532;-79
2022/08/25 12:29:06;;;;;;;3.47;2.05;;;;;37.60;101338.00;;;;5082829;28;20694;-79
2022/08/25 12:31:49;;;;;;;2.53;1.95;;;;;37.70;101337.00;;;;5073693;28;20202;-79
2022/08/25 12:34:54;;;;;;;1.75;1.65;;;;;37.80;101340.00;;;;5088196;28;20213;-79
2022/08/25 12:37:24;;;;;;;2.30;1.80;;;;;37.90;101329.00;;;;5081308;28;20279;-79
2022/08/25 12:39:59;;;;;;;2.70;1.70;;;;;37.90;101332.00;;;;5085702;28;20901;-80
2022/08/25 12:42:33;;;;;;;2.75;1.80;;;;;38.00;101330.00;;;;5084777;28;20204;-79